This is the latest recevied weather packets stored in our database for station/object DN9EM-3. If no packets are shown the sender has not sent any weather packets the latest 10 day(s).
| Time | Temp. | Humidity | Pressure | Rain* | Wind** | Luminosity | Snow |
|---|---|---|---|---|---|---|---|
| 1788267652 | 17.78° C | 84% | 1018.7 hPa | 0 mm | - | - | - |
| 1788267049 | 17.22° C | 84% | 1018.7 hPa | 0 mm | - | - | - |
| 1788266466 | 17.22° C | 85% | 1018.6 hPa | 0 mm | - | - | - |
| 1788265844 | 17.22° C | 86% | 1018.7 hPa | 0 mm | - | - | - |
| 1788265241 | 17.22° C | 85% | 1018.6 hPa | 0.51 mm | - | - | - |
| 1788264639 | 17.22° C | 87% | 1018.6 hPa | 1.02 mm | - | - | - |
| 1788264036 | 17.22° C | 87% | 1018.6 hPa | 1.02 mm | - | - | - |
| 1788263434 | 17.78° C | 88% | 1018.5 hPa | 2.79 mm | - | - | - |
| 1788262831 | 17.78° C | 90% | 1018.3 hPa | 4.32 mm | - | - | - |
| 1788262229 | 17.22° C | 90% | 1018.2 hPa | 4.32 mm | - | - | - |
| 1788261626 | 17.22° C | 89% | 1018.2 hPa | 3.56 mm | - | - | - |
| 1788261024 | 17.22° C | 89% | 1018.1 hPa | 3.3 mm | - | - | - |
| 1788260421 | 17.78° C | 87% | 1018 hPa | 3.3 mm | - | - | - |
| 1788259818 | 18.89° C | 84% | 1018 hPa | 1.52 mm | - | - | - |
| 1788259216 | 21.11° C | 77% | 1017.9 hPa | 0 mm | - | - | - |
| 1788258674 | 22.22° C | 70% | 1017.5 hPa | 0 mm | - | - | - |
| 1788258071 | 21.11° C | 72% | 1017.5 hPa | 0 mm | - | - | - |
| 1788257468 | 21.67° C | 71% | 1017.5 hPa | 0 mm | - | - | - |
| 1788256866 | 22.22° C | 69% | 1017.4 hPa | 0 mm | - | - | - |
| 1788256263 | 21.67° C | 72% | 1017.4 hPa | 0 mm | - | - | - |
| 1788255661 | 21.67° C | 71% | 1017.3 hPa | 0 mm | - | - | - |
| 1788255058 | 20.56° C | 76% | 1017.3 hPa | 0 mm | - | - | - |
| 1788254456 | 20.56° C | 74% | 1017.2 hPa | 0 mm | - | - | - |
| 1788253853 | 21.67° C | 72% | 1017.1 hPa | 0 mm | - | - | - |
| 1788253251 | 21.67° C | 71% | 1017.2 hPa | 0 mm | - | - | - |
* Rain latest hour (hover to see other rain measurements)
** Current wind speed in m/s (hover to see current wind gust speed)